Time;durP1;ratioP1;P1;durP2;ratioP2;P2;SDS_P1;SDS_P2;PMS_P1;PMS_P2;Temp;Humidity;BMP_temperature;BMP_pressure;BME280_temperature;BME280_humidity;BME280_pressure;Samples;Min_cycle;Max_cycle;Signal;HPM_P1;HPM_P2
2024/01/15 00:01:57;;;;;;;5.45;1.80;;;;;;;;;;4980087;28;92607;-80
2024/01/15 00:04:24;;;;;;;4.70;1.73;;;;;;;;;;4980894;28;92460;-81
2024/01/15 00:06:51;;;;;;;4.82;1.88;;;;;;;;;;4980732;28;94589;-81
2024/01/15 00:09:17;;;;;;;3.72;1.70;;;;;;;;;;4983053;28;92466;-83
2024/01/15 00:11:44;;;;;;;4.85;1.73;;;;;;;;;;4990733;28;93300;-82
2024/01/15 00:14:11;;;;;;;4.80;1.55;;;;;;;;;;4986085;27;94948;-83
2024/01/15 00:16:40;;;;;;;7.43;1.73;;;;;;;;;;4980725;28;95159;-81
2024/01/15 00:19:06;;;;;;;8.02;1.70;;;;;;;;;;4979631;28;94875;-81
2024/01/15 00:21:33;;;;;;;7.85;1.80;;;;;;;;;;4981675;28;92719;-80
2024/01/15 00:24:00;;;;;;;5.95;1.50;;;;;;;;;;4980418;28;92488;-80
2024/01/15 00:26:26;;;;;;;3.95;1.60;;;;;;;;;;4978770;28;93794;-80
2024/01/15 00:28:53;;;;;;;4.10;1.40;;;;;;;;;;4980996;28;92502;-80
2024/01/15 00:31:20;;;;;;;4.25;1.48;;;;;;;;;;4984169;28;92725;-81
2024/01/15 00:33:46;;;;;;;4.93;1.33;;;;;;;;;;4979936;28;92076;-80
2024/01/15 00:36:14;;;;;;;4.57;1.40;;;;;;;;;;4963534;28;95299;-80
2024/01/15 00:38:41;;;;;;;5.60;1.70;;;;;;;;;;4966297;28;97230;-81
2024/01/15 00:41:07;;;;;;;4.65;1.40;;;;;;;;;;4979234;28;92365;-81
2024/01/15 00:43:34;;;;;;;3.58;1.30;;;;;;;;;;4979008;28;95335;-80
2024/01/15 00:46:04;;;;;;;5.88;1.55;;;;;;;;;;4979371;28;93141;-80
2024/01/15 00:48:31;;;;;;;3.47;1.25;;;;;;;;;;4980237;28;92075;-80
2024/01/15 00:50:58;;;;;;;4.88;1.50;;;;;;;;;;4937415;28;1299397;-81
2024/01/15 00:53:25;;;;;;;5.20;1.30;;;;;;;;;;4980342;28;96967;-81
2024/01/15 00:55:52;;;;;;;5.53;1.50;;;;;;;;;;4948302;28;94327;-81
2024/01/15 00:58:18;;;;;;;4.00;1.25;;;;;;;;;;4980432;28;94750;-81
2024/01/15 01:00:45;;;;;;;4.20;1.20;;;;;;;;;;4981671;28;93798;-81
2024/01/15 01:03:12;;;;;;;4.95;1.23;;;;;;;;;;4978651;28;94823;-82
2024/01/15 01:05:38;;;;;;;4.05;1.25;;;;;;;;;;4981020;28;92709;-81
2024/01/15 01:08:05;;;;;;;3.90;1.33;;;;;;;;;;4963777;28;99199;-82
2024/01/15 01:10:31;;;;;;;3.50;1.30;;;;;;;;;;4979197;28;94645;-83
2024/01/15 01:12:58;;;;;;;3.58;1.10;;;;;;;;;;5003538;27;92900;-82
2024/01/15 01:15:24;;;;;;;4.22;1.40;;;;;;;;;;4999995;28;92263;-83
2024/01/15 01:17:51;;;;;;;4.28;1.30;;;;;;;;;;5000190;28;93602;-83
2024/01/15 01:20:18;;;;;;;3.67;1.27;;;;;;;;;;5000664;28;91546;-81
2024/01/15 01:22:45;;;;;;;4.53;1.20;;;;;;;;;;4999257;28;94192;-81
2024/01/15 01:25:11;;;;;;;4.75;1.13;;;;;;;;;;4982731;28;93857;-82
2024/01/15 01:27:38;;;;;;;8.13;1.50;;;;;;;;;;4978581;28;94716;-81
2024/01/15 01:30:05;;;;;;;3.78;1.10;;;;;;;;;;4980265;28;97280;-82
2024/01/15 01:32:32;;;;;;;5.68;1.20;;;;;;;;;;4962609;28;95564;-81
2024/01/15 01:34:59;;;;;;;6.38;1.30;;;;;;;;;;4977059;28;92528;-81
2024/01/15 01:37:25;;;;;;;3.90;1.10;;;;;;;;;;4963590;28;92764;-81
2024/01/15 01:39:52;;;;;;;4.00;1.00;;;;;;;;;;4979375;28;92586;-81
2024/01/15 01:42:19;;;;;;;3.55;1.20;;;;;;;;;;4980335;28;92974;-81
2024/01/15 01:44:45;;;;;;;2.55;1.10;;;;;;;;;;4980209;28;99754;-81
2024/01/15 01:47:13;;;;;;;4.20;1.10;;;;;;;;;;4981274;28;92197;-81
2024/01/15 01:49:40;;;;;;;4.18;1.00;;;;;;;;;;4963403;28;95090;-81
2024/01/15 01:52:08;;;;;;;4.85;1.20;;;;;;;;;;4979432;28;95371;-81
2024/01/15 01:54:37;;;;;;;7.07;1.45;;;;;;;;;;4980613;28;92212;-81
2024/01/15 01:57:05;;;;;;;5.72;1.27;;;;;;;;;;4982846;28;92826;-81
2024/01/15 01:59:34;;;;;;;3.70;1.08;;;;;;;;;;4963653;28;92235;-78
2024/01/15 02:02:03;;;;;;;4.65;1.20;;;;;;;;;;4981129;28;92500;-78
2024/01/15 02:04:31;;;;;;;8.00;1.45;;;;;;;;;;4978269;28;94443;-81
2024/01/15 02:06:57;;;;;;;;;;;;;;;;;;4981282;28;92198;-79
2024/01/15 02:09:24;;;;;;;7.20;1.48;;;;;;;;;;4965503;28;93960;-79
2024/01/15 02:11:54;;;;;;;5.05;1.25;;;;;;;;;;4989502;28;93919;-79
2024/01/15 02:14:21;;;;;;;6.63;1.30;;;;;;;;;;5000462;27;92658;-80
2024/01/15 02:16:48;;;;;;;;;;;;;;;;;;4997940;28;94507;-80
2024/01/15 02:19:15;;;;;;;3.08;1.00;;;;;;;;;;5004393;27;107750;-79
2024/01/15 02:21:42;;;;;;;5.45;1.20;;;;;;;;;;4980007;28;92323;-79
2024/01/15 02:24:09;;;;;;;5.35;1.00;;;;;;;;;;4979286;28;92725;-79
2024/01/15 02:26:37;;;;;;;5.38;1.10;;;;;;;;;;4980520;28;92123;-79
2024/01/15 02:29:03;;;;;;;;;;;;;;;;;;4979902;28;94550;-80
2024/01/15 02:31:30;;;;;;;4.30;1.23;;;;;;;;;;4981820;28;92966;-78
2024/01/15 02:33:57;;;;;;;3.15;0.90;;;;;;;;;;4981408;28;91860;-79
2024/01/15 02:36:24;;;;;;;12.85;1.40;;;;;;;;;;4971020;28;94245;-80
2024/01/15 02:38:50;;;;;;;6.47;1.17;;;;;;;;;;4979037;28;95232;-79
2024/01/15 02:41:17;;;;;;;7.30;1.35;;;;;;;;;;4961171;28;95203;-79
2024/01/15 02:43:43;;;;;;;5.40;1.10;;;;;;;;;;4975533;28;92989;-79
2024/01/15 02:46:10;;;;;;;6.80;1.30;;;;;;;;;;4959275;28;92358;-81
2024/01/15 02:48:37;;;;;;;2.95;1.00;;;;;;;;;;4967536;28;94647;-80
2024/01/15 02:51:03;;;;;;;3.22;0.80;;;;;;;;;;4979929;28;93565;-79
2024/01/15 02:53:30;;;;;;;3.70;0.98;;;;;;;;;;4980346;28;92281;-80
2024/01/15 02:55:56;;;;;;;4.32;1.05;;;;;;;;;;4962708;28;95032;-80
2024/01/15 02:58:23;;;;;;;4.57;1.10;;;;;;;;;;4978541;28;93412;-80
2024/01/15 03:00:49;;;;;;;4.75;1.20;;;;;;;;;;4983148;28;92630;-79
2024/01/15 03:03:16;;;;;;;4.30;0.82;;;;;;;;;;4979938;28;92836;-79
2024/01/15 03:05:43;;;;;;;5.80;0.80;;;;;;;;;;4960836;28;95133;-79
2024/01/15 03:08:09;;;;;;;4.07;0.88;;;;;;;;;;4980134;28;95198;-80
2024/01/15 03:10:36;;;;;;;4.43;0.98;;;;;;;;;;4979578;28;92417;-80
2024/01/15 03:13:02;;;;;;;7.25;0.90;;;;;;;;;;5015195;28;92137;-80
2024/01/15 03:15:29;;;;;;;4.55;0.85;;;;;;;;;;4982286;28;94934;-80
2024/01/15 03:17:55;;;;;;;5.38;0.77;;;;;;;;;;4979747;28;95755;-82
2024/01/15 03:20:22;;;;;;;5.20;0.95;;;;;;;;;;4980108;28;92412;-82
2024/01/15 03:22:49;;;;;;;3.17;0.80;;;;;;;;;;4984957;28;92174;-81
2024/01/15 03:25:16;;;;;;;3.15;0.88;;;;;;;;;;4980924;28;92260;-81
2024/01/15 03:27:42;;;;;;;7.18;1.10;;;;;;;;;;4983413;28;92258;-80
2024/01/15 03:30:09;;;;;;;5.72;1.23;;;;;;;;;;4984126;28;95906;-79
2024/01/15 03:32:36;;;;;;;7.93;1.08;;;;;;;;;;4981774;28;92478;-80
2024/01/15 03:35:02;;;;;;;5.13;0.80;;;;;;;;;;4977459;28;93440;-78
2024/01/15 03:37:29;;;;;;;3.83;1.00;;;;;;;;;;4963538;28;94824;-77
2024/01/15 03:39:56;;;;;;;2.80;0.85;;;;;;;;;;4981280;28;92153;-79
2024/01/15 03:42:23;;;;;;;4.13;1.10;;;;;;;;;;4980671;28;95046;-79
2024/01/15 03:44:50;;;;;;;8.85;1.08;;;;;;;;;;4964847;28;95412;-80
2024/01/15 03:47:16;;;;;;;3.83;0.90;;;;;;;;;;4946302;28;95161;-81
2024/01/15 03:49:43;;;;;;;3.25;0.70;;;;;;;;;;4962929;28;92870;-80
2024/01/15 03:52:10;;;;;;;4.45;0.90;;;;;;;;;;4976937;28;92473;-79
2024/01/15 03:54:37;;;;;;;2.60;0.63;;;;;;;;;;4979785;28;94865;-80
2024/01/15 03:57:04;;;;;;;2.65;0.68;;;;;;;;;;4982890;28;92723;-80
2024/01/15 03:59:31;;;;;;;4.80;0.90;;;;;;;;;;4983348;28;92290;-81
2024/01/15 04:01:57;;;;;;;4.18;0.68;;;;;;;;;;4981716;28;92480;-81
2024/01/15 04:04:24;;;;;;;4.75;0.80;;;;;;;;;;4980482;28;95181;-81
2024/01/15 04:06:50;;;;;;;6.43;0.75;;;;;;;;;;4985035;28;92281;-80
2024/01/15 04:09:17;;;;;;;8.48;0.95;;;;;;;;;;4964967;28;94690;-81
2024/01/15 04:11:44;;;;;;;5.18;1.00;;;;;;;;;;4991411;28;91492;-80
2024/01/15 04:14:10;;;;;;;7.95;1.20;;;;;;;;;;4983745;28;92759;-80
2024/01/15 04:16:37;;;;;;;6.20;0.90;;;;;;;;;;4981711;28;93067;-80
2024/01/15 04:19:03;;;;;;;8.52;1.10;;;;;;;;;;4963848;28;94723;-80
2024/01/15 04:21:30;;;;;;;5.85;0.95;;;;;;;;;;4981599;28;95351;-80
2024/01/15 04:23:57;;;;;;;4.85;0.75;;;;;;;;;;4980603;28;92749;-80
2024/01/15 04:26:23;;;;;;;4.18;0.80;;;;;;;;;;4980174;28;92071;-81
2024/01/15 04:28:50;;;;;;;3.90;0.80;;;;;;;;;;4984169;28;95199;-81
2024/01/15 04:31:26;;;;;;;4.20;0.80;;;;;;;;;;4982754;28;92062;-81
2024/01/15 04:33:54;;;;;;;3.55;0.80;;;;;;;;;;4981549;28;92888;-82
2024/01/15 04:36:20;;;;;;;5.13;0.70;;;;;;;;;;4974844;28;94503;-81
2024/01/15 04:38:47;;;;;;;2.97;0.70;;;;;;;;;;4962997;28;92196;-78
2024/01/15 04:41:15;;;;;;;4.35;0.77;;;;;;;;;;4977695;28;92582;-80
2024/01/15 04:43:41;;;;;;;4.38;0.70;;;;;;;;;;4980662;28;95121;-80
2024/01/15 04:46:08;;;;;;;3.17;0.70;;;;;;;;;;4981855;28;92091;-79
2024/01/15 04:48:34;;;;;;;3.42;0.90;;;;;;;;;;4979140;28;94692;-80
2024/01/15 04:51:03;;;;;;;3.70;0.65;;;;;;;;;;4983351;28;95380;-79
2024/01/15 04:53:30;;;;;;;3.92;1.00;;;;;;;;;;4981065;28;94396;-79
2024/01/15 04:55:56;;;;;;;4.07;0.68;;;;;;;;;;4980633;28;92835;-81
2024/01/15 04:58:25;;;;;;;3.75;0.70;;;;;;;;;;4980441;28;92469;-80
2024/01/15 05:00:52;;;;;;;3.90;0.82;;;;;;;;;;4981089;28;92553;-80
2024/01/15 05:03:18;;;;;;;4.45;0.60;;;;;;;;;;4980349;28;95425;-81
2024/01/15 05:05:45;;;;;;;6.70;0.77;;;;;;;;;;4981031;28;92661;-81
2024/01/15 05:08:12;;;;;;;3.60;0.80;;;;;;;;;;4978649;28;94816;-80
2024/01/15 05:10:38;;;;;;;3.22;0.80;;;;;;;;;;4983979;28;93202;-80
2024/01/15 05:13:05;;;;;;;3.25;0.77;;;;;;;;;;5001692;28;92508;-80
2024/01/15 05:15:31;;;;;;;2.92;0.80;;;;;;;;;;5001548;27;93302;-80
2024/01/15 05:17:58;;;;;;;2.65;0.50;;;;;;;;;;5000295;28;92142;-79
2024/01/15 05:20:27;;;;;;;3.97;0.77;;;;;;;;;;4999377;27;93997;-80
2024/01/15 05:22:53;;;;;;;3.70;0.65;;;;;;;;;;4995295;28;93014;-79
2024/01/15 05:25:20;;;;;;;3.67;0.70;;;;;;;;;;4982045;28;93362;-80
2024/01/15 05:27:46;;;;;;;2.47;0.85;;;;;;;;;;4963784;28;93884;-80
2024/01/15 05:30:13;;;;;;;4.30;0.90;;;;;;;;;;4980134;28;93543;-80
2024/01/15 05:32:40;;;;;;;3.67;0.75;;;;;;;;;;4982162;28;94521;-81
2024/01/15 05:35:07;;;;;;;3.80;1.00;;;;;;;;;;4963529;28;95816;-80
2024/01/15 05:37:33;;;;;;;2.33;0.80;;;;;;;;;;4972075;28;92682;-80
2024/01/15 05:40:00;;;;;;;15.25;0.93;;;;;;;;;;4979812;28;94894;-80
2024/01/15 05:42:30;;;;;;;5.57;0.90;;;;;;;;;;4979155;28;95501;-80
2024/01/15 05:44:59;;;;;;;4.65;0.82;;;;;;;;;;4980383;28;92259;-80
2024/01/15 05:47:25;;;;;;;5.50;1.00;;;;;;;;;;4963568;28;95467;-80
2024/01/15 05:49:52;;;;;;;5.18;0.90;;;;;;;;;;4980840;28;92245;-80
2024/01/15 05:52:20;;;;;;;3.38;0.70;;;;;;;;;;4978249;28;92411;-81
2024/01/15 05:54:47;;;;;;;3.10;0.80;;;;;;;;;;4981770;28;97841;-81
2024/01/15 05:57:14;;;;;;;3.78;0.82;;;;;;;;;;4979294;28;94997;-81
2024/01/15 05:59:40;;;;;;;3.65;0.70;;;;;;;;;;4979854;28;97746;-81
2024/01/15 06:02:10;;;;;;;3.95;0.68;;;;;;;;;;4979592;28;94982;-81
2024/01/15 06:04:37;;;;;;;4.50;0.70;;;;;;;;;;4980779;28;92374;-81
2024/01/15 06:07:03;;;;;;;3.05;0.82;;;;;;;;;;4979677;28;92611;-82
2024/01/15 06:09:31;;;;;;;3.85;0.90;;;;;;;;;;4980023;28;96661;-81
2024/01/15 06:11:58;;;;;;;2.28;0.70;;;;;;;;;;4990897;28;92240;-81
2024/01/15 06:14:24;;;;;;;3.38;0.73;;;;;;;;;;5000777;27;92505;-81
2024/01/15 06:16:52;;;;;;;3.17;0.80;;;;;;;;;;5004290;27;92315;-81
2024/01/15 06:19:18;;;;;;;2.90;0.80;;;;;;;;;;4993589;27;94227;-81
2024/01/15 06:21:45;;;;;;;7.45;0.90;;;;;;;;;;4977408;28;98144;-80
2024/01/15 06:24:13;;;;;;;4.50;0.90;;;;;;;;;;4979770;28;92150;-80
2024/01/15 06:26:40;;;;;;;3.10;1.00;;;;;;;;;;4978529;28;92536;-81
2024/01/15 06:29:06;;;;;;;4.07;1.00;;;;;;;;;;4978865;28;95284;-81
2024/01/15 06:31:33;;;;;;;2.92;0.80;;;;;;;;;;4980543;28;92084;-80
2024/01/15 06:33:59;;;;;;;2.75;0.85;;;;;;;;;;4980294;28;92446;-80
2024/01/15 06:36:26;;;;;;;4.20;0.90;;;;;;;;;;4961871;28;92766;-81
2024/01/15 06:38:53;;;;;;;2.60;0.80;;;;;;;;;;4972767;28;92681;-80
2024/01/15 06:41:19;;;;;;;2.60;1.00;;;;;;;;;;4979000;28;96075;-80
2024/01/15 06:43:46;;;;;;;2.63;0.90;;;;;;;;;;4981094;28;92313;-80
2024/01/15 06:46:13;;;;;;;2.85;0.90;;;;;;;;;;4979230;28;94411;-80
2024/01/15 06:48:39;;;;;;;4.13;0.98;;;;;;;;;;4979922;28;92813;-80
2024/01/15 06:51:06;;;;;;;2.85;0.80;;;;;;;;;;4980611;28;92368;-82
2024/01/15 06:53:33;;;;;;;3.08;1.00;;;;;;;;;;4981821;28;92470;-79
2024/01/15 06:55:59;;;;;;;3.38;0.93;;;;;;;;;;4979382;28;95499;-79
2024/01/15 06:58:26;;;;;;;2.90;1.02;;;;;;;;;;4978963;28;92333;-80
2024/01/15 07:00:52;;;;;;;2.97;0.90;;;;;;;;;;4984245;28;92400;-79
2024/01/15 07:03:19;;;;;;;2.45;0.80;;;;;;;;;;4982795;28;91346;-80
2024/01/15 07:05:46;;;;;;;2.47;1.00;;;;;;;;;;4984849;28;92540;-80
2024/01/15 07:08:12;;;;;;;3.28;1.00;;;;;;;;;;4983788;28;92729;-81
2024/01/15 07:10:39;;;;;;;4.70;0.90;;;;;;;;;;4980553;28;94742;-79
2024/01/15 07:13:06;;;;;;;4.57;1.00;;;;;;;;;;5002144;28;97279;-80
2024/01/15 07:15:32;;;;;;;7.75;0.93;;;;;;;;;;4987440;28;95178;-80
2024/01/15 07:17:59;;;;;;;3.15;1.00;;;;;;;;;;4982007;28;92436;-80
2024/01/15 07:20:26;;;;;;;4.75;1.35;;;;;;;;;;4986321;28;93102;-80
2024/01/15 07:22:52;;;;;;;3.42;1.00;;;;;;;;;;4983833;28;92009;-80
2024/01/15 07:25:19;;;;;;;3.70;1.13;;;;;;;;;;4983791;28;92538;-79
2024/01/15 07:27:46;;;;;;;5.15;1.20;;;;;;;;;;4966557;28;92065;-79
2024/01/15 07:30:13;;;;;;;;;;;;;;;;;;4965865;28;92164;-80
2024/01/15 07:32:40;;;;;;;5.32;1.30;;;;;;;;;;4983721;28;102245;-79
2024/01/15 07:35:07;;;;;;;4.40;1.40;;;;;;;;;;4974877;28;95552;-78
2024/01/15 07:37:34;;;;;;;3.80;1.20;;;;;;;;;;4974205;28;92620;-79
2024/01/15 07:40:00;;;;;;;9.88;1.48;;;;;;;;;;4981590;28;92407;-79
2024/01/15 07:42:27;;;;;;;6.25;1.30;;;;;;;;;;4984778;28;92816;-79
2024/01/15 07:44:54;;;;;;;4.97;1.50;;;;;;;;;;4982664;28;92579;-79
2024/01/15 07:47:20;;;;;;;9.07;1.40;;;;;;;;;;4982854;28;93145;-79
2024/01/15 07:49:47;;;;;;;4.07;1.30;;;;;;;;;;4981048;28;92392;-80
2024/01/15 07:52:14;;;;;;;4.88;1.40;;;;;;;;;;4983227;28;92298;-80
2024/01/15 07:54:41;;;;;;;5.97;1.30;;;;;;;;;;4981019;28;94976;-79
2024/01/15 07:57:07;;;;;;;4.05;1.20;;;;;;;;;;4982254;28;92246;-81
2024/01/15 07:59:34;;;;;;;5.43;1.23;;;;;;;;;;4981512;28;94468;-80
2024/01/15 08:02:01;;;;;;;4.50;1.15;;;;;;;;;;4980928;28;95338;-80
2024/01/15 08:04:28;;;;;;;4.47;1.30;;;;;;;;;;4983547;28;92261;-79
2024/01/15 08:06:56;;;;;;;3.35;1.13;;;;;;;;;;4980763;28;93091;-80
2024/01/15 08:09:23;;;;;;;2.70;1.15;;;;;;;;;;4981031;28;92305;-81
2024/01/15 08:11:50;;;;;;;4.32;1.20;;;;;;;;;;4980465;28;100723;-80
2024/01/15 08:14:17;;;;;;;3.45;1.23;;;;;;;;;;4980454;28;93496;-80
2024/01/15 08:16:44;;;;;;;;;;;;;;;;;;4981980;28;91585;-80
2024/01/15 08:19:10;;;;;;;3.65;1.38;;;;;;;;;;4984039;28;101852;-80
2024/01/15 08:21:38;;;;;;;3.85;1.20;;;;;;;;;;4963635;28;94228;-80
2024/01/15 08:24:05;;;;;;;3.65;1.20;;;;;;;;;;4980316;28;94419;-78
2024/01/15 08:26:35;;;;;;;2.53;1.08;;;;;;;;;;4983731;28;95371;-80
2024/01/15 08:29:01;;;;;;;4.85;1.20;;;;;;;;;;4964172;28;92471;-81
2024/01/15 08:31:28;;;;;;;6.80;1.50;;;;;;;;;;4963283;28;94761;-80
2024/01/15 08:33:55;;;;;;;4.60;1.10;;;;;;;;;;4980530;28;93095;-80
2024/01/15 08:36:24;;;;;;;2.72;1.02;;;;;;;;;;4970665;28;92247;-78
2024/01/15 08:38:51;;;;;;;3.70;1.20;;;;;;;;;;4971765;28;92744;-80
2024/01/15 08:41:17;;;;;;;3.17;1.20;;;;;;;;;;4948531;28;94466;-80
2024/01/15 08:43:44;;;;;;;3.78;1.10;;;;;;;;;;4981572;28;92404;-80
2024/01/15 08:46:10;;;;;;;3.08;1.10;;;;;;;;;;4981030;28;92440;-80
2024/01/15 08:48:37;;;;;;;2.35;1.13;;;;;;;;;;4964371;28;97937;-80
2024/01/15 08:51:04;;;;;;;2.38;1.10;;;;;;;;;;4979172;28;94775;-80
2024/01/15 08:53:31;;;;;;;2.42;1.00;;;;;;;;;;4964313;28;94953;-81
2024/01/15 08:55:58;;;;;;;2.83;1.20;;;;;;;;;;4980529;28;92266;-79
2024/01/15 08:58:25;;;;;;;3.22;1.10;;;;;;;;;;4979950;28;94721;-81
2024/01/15 09:00:52;;;;;;;2.10;1.10;;;;;;;;;;4980877;28;95186;-81
2024/01/15 09:03:19;;;;;;;3.33;1.10;;;;;;;;;;4980605;28;92530;-80
2024/01/15 09:05:45;;;;;;;2.90;1.23;;;;;;;;;;4982823;28;91725;-80
2024/01/15 09:08:12;;;;;;;3.72;1.20;;;;;;;;;;4980260;28;94637;-80
2024/01/15 09:10:39;;;;;;;2.53;1.10;;;;;;;;;;4984067;28;93752;-79
2024/01/15 09:13:06;;;;;;;3.42;1.20;;;;;;;;;;4966836;28;95689;-81
2024/01/15 09:15:32;;;;;;;7.55;1.23;;;;;;;;;;4963077;28;92008;-80
2024/01/15 09:17:59;;;;;;;3.20;1.20;;;;;;;;;;4962589;28;92369;-81
2024/01/15 09:20:27;;;;;;;2.83;1.20;;;;;;;;;;4962601;28;93451;-79
2024/01/15 09:22:53;;;;;;;3.40;1.02;;;;;;;;;;4974186;28;92456;-79
2024/01/15 09:25:20;;;;;;;4.00;1.10;;;;;;;;;;4964438;28;99458;-80
2024/01/15 09:27:48;;;;;;;3.00;1.20;;;;;;;;;;4979214;28;95304;-80
2024/01/15 09:30:15;;;;;;;3.67;1.40;;;;;;;;;;4985752;28;91489;-80
2024/01/15 09:32:42;;;;;;;3.78;1.13;;;;;;;;;;4973570;28;92796;-81
2024/01/15 09:35:09;;;;;;;5.10;1.20;;;;;;;;;;4971767;28;92187;-78
2024/01/15 09:37:37;;;;;;;4.00;1.20;;;;;;;;;;4978929;28;94460;-79
2024/01/15 09:40:16;;;;;;;1.77;0.82;;;;;;;;;;4975066;28;95118;-78
2024/01/15 09:42:44;;;;;;;3.15;1.13;;;;;;;;;;4966911;28;92136;-80
2024/01/15 09:45:11;;;;;;;3.60;1.05;;;;;;;;;;4962502;28;92418;-79
2024/01/15 09:47:38;;;;;;;2.00;1.00;;;;;;;;;;4959906;28;93457;-80
2024/01/15 09:50:10;;;;;;;2.22;1.00;;;;;;;;;;4965715;28;99753;-79
2024/01/15 09:52:38;;;;;;;2.60;1.08;;;;;;;;;;4981433;28;93682;-81
2024/01/15 09:55:05;;;;;;;3.00;1.08;;;;;;;;;;4980377;28;91965;-81
2024/01/15 09:57:32;;;;;;;;;;;;;;;;;;4979977;28;94155;-80
2024/01/15 10:00:03;;;;;;;2.55;0.82;;;;;;;;;;4981924;28;101878;-80
2024/01/15 10:02:31;;;;;;;3.33;1.10;;;;;;;;;;4961125;28;94970;-79
2024/01/15 10:04:57;;;;;;;2.85;1.00;;;;;;;;;;4978900;28;97150;-80
2024/01/15 10:07:25;;;;;;;3.42;1.02;;;;;;;;;;4980046;28;92915;-81
2024/01/15 10:09:52;;;;;;;2.88;1.10;;;;;;;;;;4963959;28;92201;-81
2024/01/15 10:12:20;;;;;;;2.40;0.90;;;;;;;;;;4979689;28;93824;-80
2024/01/15 10:14:46;;;;;;;2.78;1.15;;;;;;;;;;4975387;28;99221;-79
2024/01/15 10:17:19;;;;;;;2.90;1.00;;;;;;;;;;4976157;28;95165;-80
2024/01/15 10:19:49;;;;;;;3.15;1.00;;;;;;;;;;4963588;28;92296;-80
2024/01/15 10:22:17;;;;;;;1.80;0.90;;;;;;;;;;4979797;28;92048;-80
2024/01/15 10:24:46;;;;;;;2.83;1.00;;;;;;;;;;4980510;28;92123;-80
2024/01/15 10:27:14;;;;;;;2.53;1.05;;;;;;;;;;4979683;28;94486;-81
2024/01/15 10:29:41;;;;;;;2.95;0.93;;;;;;;;;;4982473;28;92230;-80
2024/01/15 10:32:08;;;;;;;1.80;0.95;;;;;;;;;;4979837;28;92745;-81
2024/01/15 10:34:35;;;;;;;;;;;;;;;;;;4977130;28;94850;-81
2024/01/15 10:37:02;;;;;;;3.53;1.10;;;;;;;;;;4958144;28;117644;-80
2024/01/15 10:39:29;;;;;;;2.33;0.80;;;;;;;;;;4984605;28;95516;-81
2024/01/15 10:41:56;;;;;;;3.17;0.95;;;;;;;;;;4976674;28;92090;-80
2024/01/15 10:44:22;;;;;;;2.17;0.80;;;;;;;;;;4965894;28;94629;-78
2024/01/15 10:46:49;;;;;;;1.63;1.00;;;;;;;;;;4974177;28;93078;-81
2024/01/15 10:49:16;;;;;;;3.08;1.10;;;;;;;;;;4983353;28;92183;-82
2024/01/15 10:51:43;;;;;;;;;;;;;;;;;;4967083;28;94820;-80
2024/01/15 10:54:11;;;;;;;5.72;1.42;;;;;;;;;;4984286;28;94939;-81
2024/01/15 10:56:39;;;;;;;3.25;1.10;;;;;;;;;;4981236;28;92396;-81
2024/01/15 10:59:07;;;;;;;4.47;1.20;;;;;;;;;;4987469;28;92461;-81
2024/01/15 11:01:34;;;;;;;3.45;1.20;;;;;;;;;;4966195;28;92247;-81
2024/01/15 11:04:01;;;;;;;5.03;1.20;;;;;;;;;;4967100;28;93462;-81
2024/01/15 11:06:40;;;;;;;3.97;1.10;;;;;;;;;;4964376;28;95133;-81
2024/01/15 11:09:07;;;;;;;3.90;1.20;;;;;;;;;;4985020;28;91390;-81
2024/01/15 11:11:57;;;;;;;3.63;1.10;;;;;;;;;;4981358;28;94555;-80
2024/01/15 11:14:50;;;;;;;2.38;1.00;;;;;;;;;;4968306;28;93019;-80
2024/01/15 11:17:17;;;;;;;2.35;1.00;;;;;;;;;;4980631;28;94812;-81
2024/01/15 11:19:45;;;;;;;2.95;1.10;;;;;;;;;;4986073;28;97342;-80
2024/01/15 11:22:30;;;;;;;4.50;1.00;;;;;;;;;;4983204;28;92272;-79
2024/01/15 11:25:01;;;;;;;3.10;1.10;;;;;;;;;;4982686;28;99281;-82
2024/01/15 11:27:55;;;;;;;4.22;1.10;;;;;;;;;;4970798;28;94659;-81
2024/01/15 11:30:25;;;;;;;3.45;1.20;;;;;;;;;;4983201;28;92411;-82
2024/01/15 11:32:52;;;;;;;2.80;1.02;;;;;;;;;;4984317;28;92155;-81
2024/01/15 11:35:19;;;;;;;3.30;1.02;;;;;;;;;;4974287;28;94290;-82
2024/01/15 11:37:52;;;;;;;3.42;1.20;;;;;;;;;;4976815;28;92219;-81
2024/01/15 11:40:23;;;;;;;3.95;1.20;;;;;;;;;;4982425;28;94767;-81
2024/01/15 11:42:52;;;;;;;3.53;1.15;;;;;;;;;;4977096;28;99484;-80
2024/01/15 11:45:19;;;;;;;3.08;1.10;;;;;;;;;;4982417;28;96865;-81
2024/01/15 11:47:56;;;;;;;3.00;1.00;;;;;;;;;;4982475;28;93492;-81
2024/01/15 11:50:24;;;;;;;3.65;1.08;;;;;;;;;;4980714;28;92081;-80
2024/01/15 11:53:02;;;;;;;1.52;0.90;;;;;;;;;;4982634;28;92450;-80
2024/01/15 11:55:38;;;;;;;3.78;1.02;;;;;;;;;;4979398;28;95353;-82
2024/01/15 11:58:08;;;;;;;2.80;1.00;;;;;;;;;;4994898;28;92704;-81
2024/01/15 12:00:38;;;;;;;1.70;0.90;;;;;;;;;;4983215;28;92177;-80
2024/01/15 12:03:05;;;;;;;3.50;1.13;;;;;;;;;;4981898;28;95448;-81
2024/01/15 12:05:33;;;;;;;1.90;0.90;;;;;;;;;;4969613;28;92662;-82
2024/01/15 12:07:59;;;;;;;2.33;1.00;;;;;;;;;;4980133;28;95206;-81
2024/01/15 12:10:26;;;;;;;2.28;0.82;;;;;;;;;;4983011;28;92683;-81
2024/01/15 12:12:59;;;;;;;5.45;0.95;;;;;;;;;;4981869;28;95172;-81
2024/01/15 12:15:30;;;;;;;2.22;0.90;;;;;;;;;;4982546;28;92130;-81
2024/01/15 12:17:58;;;;;;;3.03;1.00;;;;;;;;;;4982383;28;92182;-82
2024/01/15 12:20:25;;;;;;;2.25;0.90;;;;;;;;;;4981727;28;92640;-82
2024/01/15 12:22:52;;;;;;;1.80;0.85;;;;;;;;;;4982977;28;92731;-81
2024/01/15 12:25:28;;;;;;;1.85;0.82;;;;;;;;;;4966114;28;91564;-81
2024/01/15 12:27:55;;;;;;;;;;;;;;;;;;4986312;28;94229;-81
2024/01/15 12:30:21;;;;;;;2.85;0.90;;;;;;;;;;4981891;28;93716;-81
2024/01/15 12:32:48;;;;;;;4.18;0.90;;;;;;;;;;4979017;28;95068;-83
2024/01/15 12:35:15;;;;;;;5.82;1.00;;;;;;;;;;4980182;28;95626;-81
2024/01/15 12:37:42;;;;;;;3.10;0.90;;;;;;;;;;4967950;28;92537;-80
2024/01/15 12:40:10;;;;;;;2.22;0.90;;;;;;;;;;4979884;28;95385;-82
2024/01/15 12:42:36;;;;;;;3.88;0.95;;;;;;;;;;4967094;28;94926;-84
2024/01/15 12:45:05;;;;;;;2.80;0.90;;;;;;;;;;4961232;28;92477;-83
2024/01/15 12:47:32;;;;;;;3.22;0.90;;;;;;;;;;4964943;28;92810;-82
2024/01/15 12:50:01;;;;;;;1.75;0.75;;;;;;;;;;4985744;28;92070;-82
2024/01/15 12:52:41;;;;;;;1.65;0.80;;;;;;;;;;4981817;28;92532;-83
2024/01/15 12:55:08;;;;;;;2.55;0.80;;;;;;;;;;4980394;28;95097;-81
2024/01/15 12:57:35;;;;;;;;;;;;;;;;;;4979544;28;94938;-80
2024/01/15 13:00:07;;;;;;;2.45;0.80;;;;;;;;;;4983230;28;96794;-79
2024/01/15 13:02:34;;;;;;;3.28;0.82;;;;;;;;;;4962840;28;95160;-77
2024/01/15 13:05:01;;;;;;;3.17;0.73;;;;;;;;;;4981143;28;92164;-82
2024/01/15 13:07:28;;;;;;;1.67;0.82;;;;;;;;;;4960981;28;95372;-82
2024/01/15 13:09:54;;;;;;;1.70;0.75;;;;;;;;;;4977979;28;93088;-82
2024/01/15 13:12:22;;;;;;;2.70;0.90;;;;;;;;;;4995603;28;92667;-81
2024/01/15 13:14:48;;;;;;;3.97;0.90;;;;;;;;;;4984628;28;94671;-78
2024/01/15 13:17:15;;;;;;;1.15;0.68;;;;;;;;;;4998002;28;93076;-81
2024/01/15 13:19:44;;;;;;;1.77;0.70;;;;;;;;;;4979834;28;95085;-82
2024/01/15 13:22:13;;;;;;;1.90;0.88;;;;;;;;;;4978583;28;95312;-82
2024/01/15 13:24:40;;;;;;;3.17;0.90;;;;;;;;;;4981214;28;92567;-81
2024/01/15 13:27:07;;;;;;;2.50;0.88;;;;;;;;;;4981806;28;92240;-81
2024/01/15 13:29:33;;;;;;;2.25;0.70;;;;;;;;;;4980947;28;95481;-82
2024/01/15 13:32:00;;;;;;;3.25;0.85;;;;;;;;;;4967465;28;92355;-82
2024/01/15 13:34:27;;;;;;;3.17;0.90;;;;;;;;;;4981075;28;92713;-82
2024/01/15 13:36:54;;;;;;;2.00;0.75;;;;;;;;;;4964290;28;94359;-81
2024/01/15 13:39:20;;;;;;;2.55;0.65;;;;;;;;;;4982537;28;93754;-82
2024/01/15 13:41:47;;;;;;;4.00;0.90;;;;;;;;;;4981423;28;92629;-84
2024/01/15 13:44:14;;;;;;;2.72;0.80;;;;;;;;;;4981047;28;92674;-83
2024/01/15 13:46:41;;;;;;;1.65;0.82;;;;;;;;;;4978035;28;94723;-80
2024/01/15 13:49:11;;;;;;;3.03;0.88;;;;;;;;;;4980728;28;92388;-81
2024/01/15 13:51:37;;;;;;;3.17;0.75;;;;;;;;;;4980523;28;92285;-81
2024/01/15 13:54:04;;;;;;;1.85;0.85;;;;;;;;;;4982049;28;92709;-83
2024/01/15 13:56:35;;;;;;;2.80;0.93;;;;;;;;;;4980147;28;92562;-81
2024/01/15 13:59:04;;;;;;;4.57;1.00;;;;;;;;;;4980084;28;95189;-83
2024/01/15 14:01:31;;;;;;;3.55;1.00;;;;;;;;;;4980466;28;92799;-82
2024/01/15 14:03:58;;;;;;;2.22;0.80;;;;;;;;;;4980418;28;91401;-82
2024/01/15 14:06:25;;;;;;;2.60;0.90;;;;;;;;;;4981349;28;92060;-82
2024/01/15 14:08:52;;;;;;;2.65;0.80;;;;;;;;;;4963716;28;94961;-83
2024/01/15 14:11:18;;;;;;;2.70;0.80;;;;;;;;;;4978474;28;94398;-81
2024/01/15 14:13:45;;;;;;;1.67;0.80;;;;;;;;;;4979986;28;95232;-82
2024/01/15 14:16:14;;;;;;;3.55;0.90;;;;;;;;;;4966340;28;92900;-80
2024/01/15 14:18:40;;;;;;;4.30;1.05;;;;;;;;;;4973239;28;92697;-81
2024/01/15 14:21:07;;;;;;;2.08;0.90;;;;;;;;;;4981801;28;92752;-82
2024/01/15 14:23:34;;;;;;;4.50;0.80;;;;;;;;;;4980587;28;92225;-81
2024/01/15 14:26:00;;;;;;;3.08;0.93;;;;;;;;;;4981031;28;94884;-82
2024/01/15 14:28:27;;;;;;;4.07;0.88;;;;;;;;;;4981219;28;92107;-82
2024/01/15 14:30:55;;;;;;;3.08;0.90;;;;;;;;;;4984219;28;92092;-79
2024/01/15 14:33:22;;;;;;;2.78;0.80;;;;;;;;;;4983959;28;94550;-80
2024/01/15 14:35:49;;;;;;;2.53;0.85;;;;;;;;;;4967056;28;98011;-81
2024/01/15 14:38:15;;;;;;;3.53;1.13;;;;;;;;;;4975386;28;92260;-80
2024/01/15 14:40:44;;;;;;;3.33;0.90;;;;;;;;;;4982597;28;93629;-79
2024/01/15 14:43:10;;;;;;;3.92;1.08;;;;;;;;;;4981019;28;99296;-81
2024/01/15 14:45:37;;;;;;;3.88;1.40;;;;;;;;;;4980011;28;92465;-81
2024/01/15 14:48:04;;;;;;;3.65;1.50;;;;;;;;;;4979148;28;94458;-79